| |
Missouri Department of Transportation

Social Media Facebook Twitter Flickr Instagram YouTube RSS

Current AWOS Information

AWOS Home - General Info for all Airports
Current AWOS for all Airports - Current METAR for all Airports
Glossary - Disclaimer - Other Links

Recent AWOS History
11/30/15     09:02 AM CST      15:02 GMT
Air Temperature 47°F (8°C ) 1st Cloud Layer Overcast at 100 feet
Dew Point 45°F (7°C) 2nd Cloud Layer  
Barometric Pressure 30.08 in Hg. 3rd Cloud Layer  
Wind Speed 0 mph (0 knots) Density Altitude  
Peak Wind Gusts   Variable Wind Directions  
Wind Direction   Variable Visibility  
Visibility 3/4 statute miles  

Thunderstorm and Precipitation Identification:  Mist
Thunderstorm Remarks: 

Current METAR Record: METAR KMAW 301509Z AUTO 00000KT 3/4SM BR OVC001 08/07 A3008 RMK AO2




About Us
How Do I...
Contact Us
Missouri Department of Transportation
Central Office
105 W. Capitol Avenue
Jefferson City, MO 65102
1-888-ASK-MODOT (275-6636)
1-866-831-6277 (Motor Carrier Services)
Driver's License Offices
| | |
Missouri State Government
© 2013 Missouri Department of Transportation. All Rights Reserved.   Privacy Policy.
RSS FeedYoutubeBlogFlickrTwitter Facebook